createdAt,value
2018-11-02T00:00:32.653Z,24.1
2018-11-02T00:10:31.870Z,24.1
2018-11-02T00:20:31.087Z,24.1
2018-11-02T00:30:30.309Z,24.1
2018-11-02T00:40:29.528Z,24.1
2018-11-02T00:50:28.743Z,24.2
2018-11-02T01:00:27.960Z,24.1
2018-11-02T01:10:27.184Z,24.1
2018-11-02T01:20:26.404Z,24.2
2018-11-02T01:30:25.625Z,24.2
2018-11-02T01:40:24.842Z,24.1
2018-11-02T01:50:24.058Z,24.1
2018-11-02T02:00:23.275Z,24.1
2018-11-02T02:10:22.526Z,24.1
2018-11-02T02:20:21.712Z,24.1
2018-11-02T02:30:20.926Z,24.1
2018-11-02T02:40:20.148Z,24.1
2018-11-02T02:50:19.362Z,24.1
2018-11-02T03:00:18.584Z,24.1
2018-11-02T03:10:17.852Z,24.1
2018-11-02T03:20:17.025Z,24.1
2018-11-02T03:30:16.243Z,24.1
2018-11-02T03:40:15.455Z,24.1
2018-11-02T03:50:14.668Z,22.6
2018-11-02T04:00:13.886Z,22.3
2018-11-02T04:10:13.109Z,22.1
2018-11-02T04:20:12.355Z,22.1
2018-11-02T04:30:11.541Z,22
2018-11-02T04:40:10.765Z,22.1
2018-11-02T04:50:09.977Z,21.8
2018-11-02T05:00:09.200Z,21.1
2018-11-02T05:10:08.421Z,20.9
2018-11-02T05:20:07.629Z,20.9
2018-11-02T05:30:06.852Z,20.9
2018-11-02T05:40:06.065Z,20.9
2018-11-02T05:50:05.290Z,20.9
2018-11-02T06:00:04.506Z,20.9
2018-11-02T06:10:03.735Z,20.9
2018-11-02T06:20:02.951Z,20.9
2018-11-02T06:30:02.161Z,20.9
2018-11-02T06:40:01.381Z,20.9
2018-11-02T06:50:00.596Z,20.9
2018-11-02T06:59:59.995Z,20.9
2018-11-02T07:09:59.031Z,21.1
2018-11-02T07:19:58.246Z,21.3
2018-11-02T07:29:57.467Z,21.5
2018-11-02T07:39:56.682Z,21.8
2018-11-02T07:49:55.904Z,22.1
2018-11-02T07:59:55.120Z,22.6
2018-11-02T08:09:54.342Z,23.1
2018-11-02T08:19:53.559Z,23.6
2018-11-02T08:29:52.776Z,24.1
2018-11-02T08:39:51.991Z,24.6
2018-11-02T08:49:51.209Z,25.2
2018-11-02T08:59:50.601Z,25.8
2018-11-02T09:09:49.647Z,26.3
2018-11-02T09:19:48.866Z,26.9
2018-11-02T09:29:48.090Z,27.5
2018-11-02T09:39:47.306Z,28.1
2018-11-02T09:49:46.526Z,28.8
2018-11-02T09:59:45.738Z,29.4
2018-11-02T10:09:44.958Z,30.1
2018-11-02T10:19:44.172Z,30.8
2018-11-02T10:29:43.394Z,31.3
2018-11-02T10:39:42.691Z,31.9
2018-11-02T10:49:41.833Z,32.6
2018-11-02T10:59:41.046Z,33.1
2018-11-02T11:09:40.272Z,33.6
2018-11-02T11:19:39.488Z,34.2
2018-11-02T11:29:38.703Z,34.7
2018-11-02T11:39:37.942Z,35.2
2018-11-02T11:49:37.140Z,35.8
2018-11-02T11:59:36.415Z,36.3
2018-11-02T12:09:35.628Z,36.9
2018-11-02T12:19:34.820Z,37.5
2018-11-02T12:29:34.016Z,38.1
2018-11-02T12:39:33.238Z,38.6
2018-11-02T12:49:32.950Z,39.1
2018-11-02T12:59:31.676Z,39.6
2018-11-02T13:09:31.042Z,40.1
2018-11-02T13:19:30.120Z,40.6
2018-11-02T13:29:29.330Z,40.9
2018-11-02T13:39:28.546Z,41.3
2018-11-02T13:49:27.767Z,41.6
2018-11-02T13:59:26.987Z,41.9
2018-11-02T14:09:26.208Z,42.1
2018-11-02T14:19:25.418Z,42.4
2018-11-02T14:29:24.729Z,42.6
2018-11-02T14:39:23.867Z,42.8
2018-11-02T14:49:23.075Z,42.9
2018-11-02T14:59:22.293Z,43
2018-11-02T15:09:21.516Z,43
2018-11-02T15:19:20.768Z,43
2018-11-02T15:29:19.955Z,43
2018-11-02T15:39:19.196Z,42.9
2018-11-02T15:49:18.387Z,42.9
2018-11-02T15:59:17.608Z,42.6
2018-11-02T16:09:16.826Z,41.1
2018-11-02T16:19:16.057Z,38.9
2018-11-02T16:29:15.300Z,39.1
2018-11-02T16:39:14.490Z,37.8
2018-11-02T16:49:13.710Z,36.6
2018-11-02T16:59:12.931Z,36
2018-11-02T17:09:12.152Z,35.5
2018-11-02T17:19:11.378Z,35.6
2018-11-02T17:29:10.597Z,35.6
2018-11-02T17:39:09.871Z,35.7
2018-11-02T17:49:09.039Z,35.7
2018-11-02T17:59:08.256Z,35.8
2018-11-02T18:09:07.475Z,35.8
2018-11-02T18:19:06.695Z,35.1
2018-11-02T18:29:05.914Z,34
2018-11-02T18:39:05.131Z,34.1
2018-11-02T18:49:04.357Z,34.3
2018-11-02T18:59:03.583Z,34.1
2018-11-02T19:09:02.803Z,34.1
2018-11-02T19:19:02.022Z,32.8
2018-11-02T19:29:01.235Z,32.5
2018-11-02T19:39:00.474Z,32.6
2018-11-02T19:48:59.733Z,32.6
2018-11-02T19:58:58.895Z,30.9
2018-11-02T20:08:58.116Z,30.7
2018-11-02T20:18:57.394Z,30.8
2018-11-02T20:28:56.555Z,30.8
2018-11-02T20:38:55.803Z,30.8
2018-11-02T20:48:55.049Z,30.8
2018-11-02T20:58:54.221Z,30.8
2018-11-02T21:08:53.538Z,30.8
2018-11-02T21:18:52.656Z,30.8
2018-11-02T21:28:51.962Z,30.8
2018-11-02T21:38:51.219Z,30.8
2018-11-02T21:48:50.313Z,30.8
2018-11-02T21:58:49.525Z,30.8
2018-11-02T22:08:48.775Z,30.8
2018-11-02T22:18:48.054Z,30.8
2018-11-02T22:28:47.253Z,30.8
2018-11-02T22:38:46.404Z,30.8
2018-11-02T22:48:45.624Z,30.8
2018-11-02T22:58:44.841Z,30.7
2018-11-02T23:08:44.155Z,30.7
2018-11-02T23:18:43.279Z,30.7
2018-11-02T23:28:42.493Z,30.8
2018-11-02T23:38:41.710Z,30.8
2018-11-02T23:48:40.933Z,30.8
2018-11-02T23:58:40.152Z,30.8
